createdAt,value
2016-03-07T00:00:13.919Z,77.18
2016-03-07T00:01:13.860Z,77.37
2016-03-07T00:02:13.784Z,77.56
2016-03-07T00:03:13.710Z,77.56
2016-03-07T00:04:13.696Z,77.56
2016-03-07T00:05:13.621Z,77.27
2016-03-07T00:06:13.560Z,77.18
2016-03-07T00:07:13.485Z,77.27
2016-03-07T00:08:13.441Z,77.37
2016-03-07T00:09:13.365Z,77.56
2016-03-07T00:10:13.306Z,77.46
2016-03-07T00:11:13.262Z,77.18
2016-03-07T00:12:13.202Z,76.8
2016-03-07T00:13:13.174Z,76.89
2016-03-07T00:14:13.082Z,76.99
2016-03-07T00:15:13.022Z,77.08
2016-03-07T00:16:12.963Z,77.08
2016-03-07T00:17:12.903Z,77.08
2016-03-07T00:18:12.827Z,76.8
2016-03-07T00:19:12.784Z,76.89
2016-03-07T00:20:12.723Z,76.89
2016-03-07T00:21:12.679Z,76.99
2016-03-07T00:22:12.589Z,77.18
2016-03-07T00:23:12.544Z,77.08
2016-03-07T00:24:12.468Z,76.99
2016-03-07T00:25:12.440Z,76.99
2016-03-07T00:26:12.349Z,76.61
2016-03-07T00:27:12.304Z,77.08
2016-03-07T00:28:12.244Z,76.89
2016-03-07T00:29:12.185Z,76.7
2016-03-07T00:30:12.125Z,77.08
2016-03-07T00:31:12.081Z,76.61
2016-03-07T00:32:12.005Z,76.89
2016-03-07T00:33:11.946Z,76.89
2016-03-07T00:34:11.871Z,77.08
2016-03-07T00:35:11.827Z,76.61
2016-03-07T00:36:11.766Z,77.08
2016-03-07T00:37:11.737Z,77.08
2016-03-07T00:38:11.647Z,77.08
2016-03-07T00:39:11.587Z,77.08
2016-03-07T00:40:11.512Z,76.99
2016-03-07T00:41:11.483Z,76.42
2016-03-07T00:42:11.407Z,76.61
2016-03-07T00:43:11.348Z,76.99
2016-03-07T00:44:11.288Z,76.42
2016-03-07T00:45:11.228Z,76.42
2016-03-07T00:46:11.167Z,76.51
2016-03-07T00:47:11.109Z,76.7
2016-03-07T00:48:11.033Z,76.99
2016-03-07T00:49:10.989Z,77.08
2016-03-07T00:50:10.929Z,77.08
2016-03-07T00:51:10.884Z,76.51
2016-03-07T00:52:10.856Z,76.8
2016-03-07T00:53:10.750Z,76.7
2016-03-07T00:54:10.689Z,76.89
2016-03-07T00:55:10.661Z,76.61
2016-03-07T00:56:10.555Z,76.61
2016-03-07T00:57:10.525Z,76.99
2016-03-07T00:58:10.450Z,76.89
2016-03-07T00:59:10.391Z,76.8
2016-03-07T01:00:10.347Z,76.99
2016-03-07T01:01:10.271Z,76.99
2016-03-07T01:02:10.227Z,76.99
2016-03-07T01:03:10.152Z,76.99
2016-03-07T01:04:10.091Z,76.8
2016-03-07T01:05:10.047Z,76.99
2016-03-07T01:06:09.957Z,76.89
2016-03-07T01:07:09.943Z,76.8
2016-03-07T01:08:09.869Z,76.8
2016-03-07T01:09:09.793Z,77.08
2016-03-07T01:10:09.764Z,77.08
2016-03-07T01:11:09.673Z,76.32
2016-03-07T01:12:09.613Z,76.8
2016-03-07T01:13:09.568Z,76.8
2016-03-07T01:14:09.509Z,76.7
2016-03-07T01:15:09.449Z,76.8
2016-03-07T01:16:09.389Z,76.99
2016-03-07T01:17:09.330Z,77.08
2016-03-07T01:18:09.270Z,76.8
2016-03-07T01:19:09.195Z,76.61
2016-03-07T01:20:09.150Z,76.89
2016-03-07T01:21:09.075Z,76.7
2016-03-07T01:22:09.031Z,76.61
2016-03-07T01:23:08.970Z,76.51
2016-03-07T01:24:08.911Z,76.99
2016-03-07T01:25:08.867Z,76.89
2016-03-07T01:26:08.792Z,76.99
2016-03-07T01:27:08.748Z,76.8
2016-03-07T01:28:08.672Z,76.61
2016-03-07T01:29:08.611Z,76.61
2016-03-07T01:30:08.537Z,76.51
2016-03-07T01:31:08.492Z,76.42
2016-03-07T01:32:08.448Z,76.42
2016-03-07T01:33:08.388Z,76.61
2016-03-07T01:34:08.313Z,76.42
2016-03-07T01:35:08.284Z,76.23
2016-03-07T01:36:08.225Z,76.32
2016-03-07T01:37:08.149Z,76.61
2016-03-07T01:38:08.089Z,76.51
2016-03-07T01:39:08.030Z,76.32
2016-03-07T01:40:07.970Z,76.04
2016-03-07T01:41:07.910Z,76.42
2016-03-07T01:42:07.850Z,76.42
2016-03-07T01:43:07.774Z,76.61
2016-03-07T01:44:07.731Z,76.51
2016-03-07T01:45:07.655Z,76.7
2016-03-07T01:46:07.611Z,76.14
2016-03-07T01:47:07.567Z,76.23
2016-03-07T01:48:07.476Z,76.51
2016-03-07T01:49:07.415Z,76.61
2016-03-07T01:50:07.387Z,76.61
2016-03-07T01:51:07.311Z,76.8
2016-03-07T01:52:07.237Z,76.51
2016-03-07T01:53:07.192Z,76.51
2016-03-07T01:54:07.148Z,76.7
2016-03-07T01:55:07.089Z,76.42
2016-03-07T01:56:06.997Z,76.61
2016-03-07T01:57:06.969Z,76.61
2016-03-07T01:58:06.894Z,76.51
2016-03-07T01:59:06.849Z,76.61
2016-03-07T02:00:06.773Z,76.14
2016-03-07T02:01:06.714Z,76.42
2016-03-07T02:02:06.654Z,76.7
2016-03-07T02:03:06.578Z,76.8
2016-03-07T02:04:06.550Z,76.99
2016-03-07T02:05:06.490Z,77.18
2016-03-07T02:06:06.258Z,76.8
2016-03-07T02:07:06.371Z,77.08
2016-03-07T02:08:06.295Z,77.46
2016-03-07T02:09:06.219Z,76.89
2016-03-07T02:10:06.191Z,77.08
2016-03-07T02:11:06.116Z,77.18
2016-03-07T02:12:06.102Z,77.18
2016-03-07T02:13:06.012Z,77.37
2016-03-07T02:14:05.937Z,76.99
2016-03-07T02:15:05.892Z,77.46
2016-03-07T02:16:05.817Z,77.08
2016-03-07T02:17:05.741Z,76.99
2016-03-07T02:18:05.712Z,77.08
2016-03-07T02:19:05.684Z,77.37
2016-03-07T02:20:05.578Z,77.08
2016-03-07T02:21:05.518Z,77.27
2016-03-07T02:22:05.474Z,77.08
2016-03-07T02:23:05.414Z,77.65
2016-03-07T02:24:05.354Z,77.46
2016-03-07T02:25:05.294Z,76.99
2016-03-07T02:26:05.234Z,76.99
2016-03-07T02:27:05.175Z,77.37
2016-03-07T02:28:05.130Z,76.89
2016-03-07T02:29:05.040Z,77.37
2016-03-07T02:30:04.980Z,76.8
2016-03-07T02:31:04.936Z,76.89
2016-03-07T02:32:04.860Z,77.08
2016-03-07T02:33:04.816Z,76.99
2016-03-07T02:34:04.755Z,76.89
2016-03-07T02:35:04.680Z,76.61
2016-03-07T02:36:04.621Z,76.8
2016-03-07T02:37:04.577Z,77.18
2016-03-07T02:38:04.517Z,77.18
2016-03-07T02:39:04.457Z,76.8
2016-03-07T02:40:04.397Z,76.89
2016-03-07T02:41:04.337Z,76.99
2016-03-07T02:42:04.277Z,76.89
2016-03-07T02:43:04.202Z,76.89
2016-03-07T02:44:04.032Z,76.89
2016-03-07T02:45:04.099Z,76.89
2016-03-07T02:46:04.054Z,76.99
2016-03-07T02:47:04.010Z,76.99
2016-03-07T02:48:03.918Z,76.8
2016-03-07T02:49:03.874Z,76.89
2016-03-07T02:50:03.799Z,77.08
2016-03-07T02:51:03.739Z,76.8
2016-03-07T02:52:03.679Z,76.99
2016-03-07T02:53:03.620Z,77.08
2016-03-07T02:54:03.560Z,77.08
2016-03-07T02:55:03.500Z,77.08
2016-03-07T02:56:03.456Z,77.08
2016-03-07T02:57:03.395Z,76.61
2016-03-07T02:58:03.336Z,76.89
2016-03-07T02:59:03.448Z,77.08
2016-03-07T03:00:03.216Z,76.61
2016-03-07T03:01:03.142Z,76.89
2016-03-07T03:02:03.112Z,76.8
2016-03-07T03:03:03.006Z,76.89
2016-03-07T03:04:02.961Z,76.99
2016-03-07T03:05:02.902Z,76.8
2016-03-07T03:06:02.842Z,76.61
2016-03-07T03:07:02.782Z,76.89
2016-03-07T03:08:02.738Z,76.99
2016-03-07T03:09:02.694Z,77.08
2016-03-07T03:10:02.619Z,77.27
2016-03-07T03:11:02.543Z,77.08
2016-03-07T03:12:02.499Z,76.89
2016-03-07T03:13:02.471Z,76.99
2016-03-07T03:14:02.394Z,77.18
2016-03-07T03:15:02.319Z,77.56
2016-03-07T03:16:02.259Z,77.56
2016-03-07T03:17:02.200Z,78.03
2016-03-07T03:18:02.140Z,78.22
2016-03-07T03:19:02.065Z,78.22
2016-03-07T03:20:02.020Z,78.31
2016-03-07T03:21:01.976Z,78.5
2016-03-07T03:22:01.901Z,78.5
2016-03-07T03:23:01.840Z,78.41
2016-03-07T03:24:01.812Z,78.13
2016-03-07T03:25:01.753Z,77.84
2016-03-07T03:26:01.662Z,77.94
2016-03-07T03:27:01.601Z,78.13
2016-03-07T03:28:01.542Z,78.22
2016-03-07T03:29:01.482Z,78.22
2016-03-07T03:30:01.422Z,78.03
2016-03-07T03:31:01.375Z,78.03
2016-03-07T03:32:01.300Z,78.41
2016-03-07T03:33:01.255Z,78.13
2016-03-07T03:34:01.180Z,78.22
2016-03-07T03:35:01.120Z,78.03
2016-03-07T03:36:01.092Z,78.13
2016-03-07T03:37:00.986Z,78.13
2016-03-07T03:38:00.941Z,78.31
2016-03-07T03:39:00.881Z,78.13
2016-03-07T03:40:00.821Z,77.84
2016-03-07T03:41:00.777Z,77.84
2016-03-07T03:42:00.702Z,78.22
2016-03-07T03:43:00.642Z,78.22
2016-03-07T03:44:00.582Z,79.26
2016-03-07T03:45:00.538Z,79.45
2016-03-07T03:46:00.478Z,79.36
2016-03-07T03:47:00.402Z,79.36
2016-03-07T03:48:00.343Z,79.74
2016-03-07T03:49:00.298Z,79.45
2016-03-07T03:50:00.223Z,79.45
2016-03-07T03:51:00.179Z,78.94
2016-03-07T03:52:00.135Z,79.17
2016-03-07T03:53:00.059Z,79.13
2016-03-07T03:54:00.015Z,79.17
2016-03-07T03:54:59.939Z,79.17
2016-03-07T03:55:59.864Z,78.79
2016-03-07T03:56:59.804Z,79.17
2016-03-07T03:57:59.760Z,79.36
2016-03-07T03:58:59.684Z,79.26
2016-03-07T03:59:59.641Z,79.17
2016-03-07T04:00:59.425Z,79.17
2016-03-07T04:01:59.521Z,79.26
2016-03-07T04:02:59.445Z,79.5
2016-03-07T04:03:59.433Z,78.98
2016-03-07T04:04:59.544Z,78.98
2016-03-07T04:05:59.282Z,78.98
2016-03-07T04:06:59.238Z,79.26
2016-03-07T04:07:59.147Z,79.17
2016-03-07T04:08:59.102Z,79.83
2016-03-07T04:09:59.027Z,79.93
2016-03-07T04:10:58.999Z,79.83
2016-03-07T04:11:58.923Z,79.64
2016-03-07T04:12:58.879Z,79.5
2016-03-07T04:13:58.803Z,79.74
2016-03-07T04:14:58.744Z,79.69
2016-03-07T04:15:58.684Z,79.79
2016-03-07T04:16:58.640Z,79.98
2016-03-07T04:17:58.563Z,80.07
2016-03-07T04:18:58.504Z,79.88
2016-03-07T04:19:58.476Z,79.6
2016-03-07T04:20:58.385Z,80.07
2016-03-07T04:21:58.324Z,79.88
2016-03-07T04:22:58.265Z,79.69
2016-03-07T04:23:58.204Z,80.07
2016-03-07T04:24:58.161Z,79.69
2016-03-07T04:25:58.101Z,79.69
2016-03-07T04:26:58.010Z,79.79
2016-03-07T04:27:57.981Z,80.07
2016-03-07T04:28:57.907Z,79.69
2016-03-07T04:29:57.862Z,79.98
2016-03-07T04:30:57.787Z,79.88
2016-03-07T04:31:57.711Z,80.17
2016-03-07T04:32:57.667Z,79.98
2016-03-07T04:33:57.622Z,79.88
2016-03-07T04:34:57.564Z,80.45
2016-03-07T04:35:57.490Z,80.45
2016-03-07T04:36:57.431Z,80.36
2016-03-07T04:37:57.370Z,80.45
2016-03-07T04:38:57.327Z,80.26
2016-03-07T04:39:57.236Z,79.88
2016-03-07T04:40:57.258Z,79.88
2016-03-07T04:41:57.135Z,80.17
2016-03-07T04:42:57.060Z,79.98
2016-03-07T04:43:57.015Z,79.98
2016-03-07T04:44:56.957Z,79.88
2016-03-07T04:45:56.896Z,79.79
2016-03-07T04:46:56.837Z,79.88
2016-03-07T04:47:56.776Z,79.79
2016-03-07T04:48:56.717Z,79.98
2016-03-07T04:49:56.657Z,79.79
2016-03-07T04:50:56.598Z,79.98
2016-03-07T04:51:56.537Z,79.5
2016-03-07T04:52:56.478Z,79.5
2016-03-07T04:53:56.403Z,80.07
2016-03-07T04:54:56.358Z,79.6
2016-03-07T04:55:56.298Z,79.36
2016-03-07T04:56:56.238Z,79.41
2016-03-07T04:57:56.163Z,79.5
2016-03-07T04:58:56.103Z,79.5
2016-03-07T04:59:56.044Z,79.74
2016-03-07T05:00:56.014Z,79.69
2016-03-07T05:01:55.939Z,79.79
2016-03-07T05:02:55.864Z,79.55
2016-03-07T05:03:55.819Z,79.64
2016-03-07T05:04:55.760Z,80.11
2016-03-07T05:05:55.691Z,79.88
2016-03-07T05:06:55.648Z,80.36
2016-03-07T05:07:55.588Z,80.36
2016-03-07T05:08:55.513Z,80.07
2016-03-07T05:09:55.453Z,80.87
2016-03-07T05:10:55.409Z,80.55
2016-03-07T05:11:55.333Z,80.17
2016-03-07T05:12:55.352Z,80.26
2016-03-07T05:13:55.213Z,80.83
2016-03-07T05:14:55.154Z,80.36
2016-03-07T05:15:55.093Z,80.26
2016-03-07T05:16:55.050Z,80.55
2016-03-07T05:17:54.974Z,81.12
2016-03-07T05:18:54.915Z,81.02
2016-03-07T05:19:54.886Z,80.45
2016-03-07T05:20:54.795Z,80.36
2016-03-07T05:21:54.734Z,80.17
2016-03-07T05:22:54.675Z,80.36
2016-03-07T05:23:54.615Z,80.17
2016-03-07T05:24:54.556Z,79.88
2016-03-07T05:25:54.495Z,80.02
2016-03-07T05:26:54.436Z,80.17
2016-03-07T05:27:54.376Z,79.98
2016-03-07T05:28:54.317Z,79.79
2016-03-07T05:29:54.272Z,79.88
2016-03-07T05:30:54.197Z,80.26
2016-03-07T05:31:54.136Z,80.36
2016-03-07T05:32:54.078Z,80.26
2016-03-07T05:33:54.017Z,79.79
2016-03-07T05:34:53.958Z,79.98
2016-03-07T05:35:53.897Z,79.79
2016-03-07T05:36:53.854Z,79.88
2016-03-07T05:37:53.794Z,79.79
2016-03-07T05:38:53.719Z,80.07
2016-03-07T05:39:53.658Z,79.69
2016-03-07T05:40:53.599Z,80.07
2016-03-07T05:41:53.524Z,79.79
2016-03-07T05:42:53.463Z,79.5
2016-03-07T05:43:53.419Z,79.32
2016-03-07T05:44:53.359Z,80.17
2016-03-07T05:45:53.299Z,79.6
2016-03-07T05:46:53.256Z,79.88
2016-03-07T05:47:53.180Z,79.88
2016-03-07T05:48:53.120Z,80.07
2016-03-07T05:49:53.060Z,79.69
2016-03-07T05:50:53.000Z,79.69
2016-03-07T05:51:52.973Z,80.26
2016-03-07T05:52:52.881Z,79.79
2016-03-07T05:53:52.821Z,80.17
2016-03-07T05:54:52.761Z,79.88
2016-03-07T05:55:52.718Z,80.36
2016-03-07T05:56:52.642Z,80.07
2016-03-07T05:57:52.567Z,80.45
2016-03-07T05:58:52.522Z,80.36
2016-03-07T05:59:52.478Z,80.45
2016-03-07T06:00:52.419Z,80.45
2016-03-07T06:01:52.343Z,80.36
2016-03-07T06:02:52.283Z,80.83
2016-03-07T06:03:52.239Z,80.36
2016-03-07T06:04:52.163Z,80.55
2016-03-07T06:05:52.103Z,80.36
2016-03-07T06:06:52.044Z,79.88
2016-03-07T06:07:51.999Z,80.36
2016-03-07T06:08:51.924Z,80.36
2016-03-07T06:09:51.864Z,80.26
2016-03-07T06:10:51.805Z,80.64
2016-03-07T06:11:51.744Z,80.55
2016-03-07T06:12:51.685Z,80.26
2016-03-07T06:13:51.624Z,80.45
2016-03-07T06:14:51.565Z,81.21
2016-03-07T06:15:51.521Z,80.83
2016-03-07T06:16:51.446Z,80.64
2016-03-07T06:17:51.417Z,81.02
2016-03-07T06:18:51.342Z,80.64
2016-03-07T06:19:51.281Z,81.68
2016-03-07T06:20:51.207Z,81.12
2016-03-07T06:21:51.131Z,81.12
2016-03-07T06:22:51.071Z,80.93
2016-03-07T06:23:51.042Z,81.4
2016-03-07T06:24:50.968Z,81.49
2016-03-07T06:25:50.907Z,80.83
2016-03-07T06:26:50.864Z,80.36
2016-03-07T06:27:50.787Z,80.45
2016-03-07T06:28:50.744Z,81.02
2016-03-07T06:29:50.668Z,81.49
2016-03-07T06:30:50.625Z,80.64
2016-03-07T06:31:50.548Z,80.93
2016-03-07T06:32:50.473Z,81.02
2016-03-07T06:33:50.428Z,80.83
2016-03-07T06:34:50.353Z,80.64
2016-03-07T06:35:50.309Z,80.93
2016-03-07T06:36:50.265Z,81.4
2016-03-07T06:37:50.189Z,81.49
2016-03-07T06:38:50.130Z,81.12
2016-03-07T06:39:50.086Z,80.83
2016-03-07T06:40:50.010Z,81.12
2016-03-07T06:41:49.950Z,80.26
2016-03-07T06:42:49.906Z,81.02
2016-03-07T06:43:49.831Z,81.4
2016-03-07T06:44:49.771Z,81.68
2016-03-07T06:45:49.696Z,81.49
2016-03-07T06:46:49.651Z,81.49
2016-03-07T06:47:49.623Z,81.68
2016-03-07T06:48:49.515Z,82.06
2016-03-07T06:49:49.472Z,81.87
2016-03-07T06:50:49.412Z,81.96
2016-03-07T06:51:49.352Z,81.4
2016-03-07T06:52:49.293Z,82.06
2016-03-07T06:53:49.233Z,81.59
2016-03-07T06:54:49.173Z,81.96
2016-03-07T06:55:49.113Z,82.06
2016-03-07T06:56:49.053Z,82.2
2016-03-07T06:57:49.004Z,82.01
2016-03-07T06:58:48.914Z,81.63
2016-03-07T06:59:48.839Z,80.87
2016-03-07T07:00:48.765Z,81.06
2016-03-07T07:01:48.706Z,80.21
2016-03-07T07:02:48.620Z,80.49
2016-03-07T07:03:48.539Z,80.4
2016-03-07T07:04:48.489Z,80.4
2016-03-07T07:05:48.409Z,80.68
2016-03-07T07:06:48.374Z,80.58
2016-03-07T07:07:48.310Z,80.68
2016-03-07T07:08:48.233Z,80.87
2016-03-07T07:09:48.187Z,80.87
2016-03-07T07:10:48.141Z,80.02
2016-03-07T07:11:48.048Z,79.64
2016-03-07T07:12:47.987Z,79.74
2016-03-07T07:13:47.942Z,79.55
2016-03-07T07:14:47.882Z,79.64
2016-03-07T07:15:47.822Z,79.64
2016-03-07T07:16:47.746Z,79.83
2016-03-07T07:17:47.690Z,79.64
2016-03-07T07:18:47.645Z,79.83
2016-03-07T07:19:47.586Z,79.93
2016-03-07T07:20:47.558Z,79.64
2016-03-07T07:21:47.466Z,79.26
2016-03-07T07:22:47.405Z,79.55
2016-03-07T07:23:47.345Z,78.98
2016-03-07T07:24:47.286Z,78.59
2016-03-07T07:25:47.210Z,78.5
2016-03-07T07:26:47.166Z,78.41
2016-03-07T07:27:47.106Z,78.22
2016-03-07T07:28:47.046Z,78.31
2016-03-07T07:29:46.986Z,78.69
2016-03-07T07:30:46.926Z,78.69
2016-03-07T07:31:46.883Z,78.59
2016-03-07T07:32:46.807Z,78.41
2016-03-07T07:33:46.748Z,78.22
2016-03-07T07:34:46.687Z,78.54
2016-03-07T07:35:46.456Z,78.54
2016-03-07T07:36:46.443Z,79.21
2016-03-07T07:37:46.539Z,78.73
2016-03-07T07:38:46.464Z,78.69
2016-03-07T07:39:46.405Z,78.64
2016-03-07T07:40:46.360Z,78.92
2016-03-07T07:41:46.285Z,79.11
2016-03-07T07:42:46.224Z,78.64
2016-03-07T07:43:46.181Z,78.54
2016-03-07T07:44:46.105Z,78.45
2016-03-07T07:45:46.046Z,78.26
2016-03-07T07:46:46.001Z,78.45
2016-03-07T07:47:45.927Z,78.35
2016-03-07T07:48:45.850Z,78.54
2016-03-07T07:49:45.807Z,78.64
2016-03-07T07:50:45.762Z,78.64
2016-03-07T07:51:45.687Z,78.92
2016-03-07T07:52:45.642Z,78.73
2016-03-07T07:53:45.582Z,78.45
2016-03-07T07:54:45.506Z,78.07
2016-03-07T07:55:45.462Z,77.22
2016-03-07T07:56:45.403Z,77.4
2016-03-07T07:57:45.343Z,77.12
2016-03-07T07:58:45.299Z,77.03
2016-03-07T07:59:45.239Z,77.4
2016-03-07T08:00:45.179Z,76.65
2016-03-07T08:01:45.120Z,75.89
2016-03-07T08:02:45.045Z,75.89
2016-03-07T08:03:45.000Z,76.08
2016-03-07T08:04:44.925Z,76.08
2016-03-07T08:05:44.864Z,76.08
2016-03-07T08:06:44.805Z,76.55
2016-03-07T08:07:44.760Z,76.55
2016-03-07T08:08:44.685Z,76.4
2016-03-07T08:09:44.656Z,75.42
2016-03-07T08:10:44.566Z,75.45
2016-03-07T08:11:44.521Z,75.55
2016-03-07T08:12:44.478Z,75.45
2016-03-07T08:13:44.417Z,75.55
2016-03-07T08:14:44.342Z,75.26
2016-03-07T08:15:44.283Z,75.17
2016-03-07T08:16:44.238Z,75.07
2016-03-07T08:17:44.178Z,75.07
2016-03-07T08:18:44.118Z,75.36
2016-03-07T08:19:44.058Z,75.55
2016-03-07T08:20:43.999Z,75.26
2016-03-07T08:21:43.938Z,75.55
2016-03-07T08:22:43.895Z,75.07
2016-03-07T08:23:43.818Z,74.79
2016-03-07T08:24:43.759Z,74.22
2016-03-07T08:25:43.559Z,73.94
2016-03-07T08:26:43.656Z,73.94
2016-03-07T08:27:43.596Z,73.75
2016-03-07T08:28:43.537Z,74.03
2016-03-07T08:29:43.523Z,73.94
2016-03-07T08:30:43.432Z,74.69
2016-03-07T08:31:43.356Z,74.51
2016-03-07T08:32:43.297Z,74.88
2016-03-07T08:33:43.221Z,74.51
2016-03-07T08:34:43.192Z,74.13
2016-03-07T08:35:43.164Z,74.13
2016-03-07T08:36:43.073Z,74.22
2016-03-07T08:37:43.013Z,73.94
2016-03-07T08:38:42.953Z,74.03
2016-03-07T08:39:42.909Z,73.56
2016-03-07T08:40:42.864Z,73.46
2016-03-07T08:41:42.775Z,73.56
2016-03-07T08:42:42.714Z,74.03
2016-03-07T08:43:42.670Z,73.97
2016-03-07T08:44:42.594Z,73.79
2016-03-07T08:45:42.550Z,73.31
2016-03-07T08:46:42.491Z,73.88
2016-03-07T08:47:42.431Z,74.16
2016-03-07T08:48:42.386Z,74.13
2016-03-07T08:49:42.326Z,74.07
2016-03-07T08:50:42.267Z,74.26
2016-03-07T08:51:42.207Z,73.41
2016-03-07T08:52:42.163Z,72.55
2016-03-07T08:53:42.087Z,73.03
2016-03-07T08:54:42.027Z,72.55
2016-03-07T08:55:41.968Z,72.36
2016-03-07T08:56:41.907Z,72.27
2016-03-07T08:57:41.848Z,72.17
2016-03-07T08:58:41.804Z,71.32
2016-03-07T08:59:41.729Z,71.03
2016-03-07T09:00:41.684Z,71.22
2016-03-07T09:01:41.625Z,71.6
2016-03-07T09:02:41.564Z,70.84
2016-03-07T09:03:41.506Z,70.65
2016-03-07T09:04:41.461Z,70.75
2016-03-07T09:05:41.401Z,70.84
2016-03-07T09:06:41.342Z,70.65
2016-03-07T09:07:41.281Z,69.99
2016-03-07T09:08:41.237Z,70.5
2016-03-07T09:09:41.161Z,69.84
2016-03-07T09:10:41.117Z,69.55
2016-03-07T09:11:41.042Z,69.08
2016-03-07T09:12:40.998Z,69.27
2016-03-07T09:13:40.938Z,69.08
2016-03-07T09:14:40.878Z,69.17
2016-03-07T09:15:40.819Z,69.08
2016-03-07T09:16:40.758Z,69.27
2016-03-07T09:17:40.714Z,68.79
2016-03-07T09:18:40.671Z,68.41
2016-03-07T09:19:40.595Z,68.23
2016-03-07T09:20:40.379Z,68.04
2016-03-07T09:21:40.491Z,68.23
2016-03-07T09:22:40.432Z,68.41
2016-03-07T09:23:40.372Z,67.97
2016-03-07T09:24:40.311Z,67.08
2016-03-07T09:25:40.251Z,66.8
2016-03-07T09:26:40.192Z,66.93
2016-03-07T09:27:40.132Z,67.79
2016-03-07T09:28:40.087Z,68.44
2016-03-07T09:29:40.043Z,68.07
2016-03-07T09:30:39.968Z,67.88
2016-03-07T09:31:39.924Z,67.5
2016-03-07T09:32:39.864Z,67.31
2016-03-07T09:33:39.804Z,67.88
2016-03-07T09:34:39.760Z,67.12
2016-03-07T09:35:39.701Z,67.31
2016-03-07T09:36:39.640Z,67.97
2016-03-07T09:37:39.564Z,67.25
2016-03-07T09:38:39.520Z,66.58
2016-03-07T09:39:39.461Z,66.39
2016-03-07T09:40:39.417Z,65.92
2016-03-07T09:41:39.358Z,65.92
2016-03-07T09:42:39.298Z,65.19
2016-03-07T09:43:39.238Z,64.53
2016-03-07T09:44:39.194Z,64.34
2016-03-07T09:45:39.134Z,64.14
2016-03-07T09:46:39.074Z,63.99
2016-03-07T09:47:39.030Z,63.51
2016-03-07T09:48:38.969Z,63.23
2016-03-07T09:49:38.894Z,62.56
2016-03-07T09:50:38.865Z,61.8
2016-03-07T09:51:38.790Z,61.71
2016-03-07T09:52:38.746Z,61.9
2016-03-07T09:53:38.530Z,61.42
2016-03-07T09:54:38.643Z,60.75
2016-03-07T09:55:38.566Z,59.9
2016-03-07T09:56:38.538Z,59.9
2016-03-07T09:57:38.479Z,59.52
2016-03-07T09:58:38.450Z,59.14
2016-03-07T09:59:38.359Z,59.9
2016-03-07T10:00:38.299Z,59.9
2016-03-07T10:01:38.255Z,59.8
2016-03-07T10:02:38.179Z,60.18
2016-03-07T10:03:38.134Z,59.96
2016-03-07T10:04:38.090Z,59.9
2016-03-07T10:05:37.891Z,60.16
2016-03-07T10:06:37.972Z,60.53
2016-03-07T10:07:37.912Z,60.82
2016-03-07T10:08:37.868Z,60.82
2016-03-07T10:09:37.809Z,60.72
2016-03-07T10:10:37.764Z,61.01
2016-03-07T10:11:37.689Z,60.82
2016-03-07T10:12:37.629Z,61.01
2016-03-07T10:13:37.584Z,60.91
2016-03-07T10:14:37.525Z,61.29
2016-03-07T10:15:37.465Z,60.82
2016-03-07T10:16:37.406Z,60.82
2016-03-07T10:17:37.362Z,59.9
2016-03-07T10:18:37.302Z,59.23
2016-03-07T10:19:37.243Z,59.8
2016-03-07T10:20:37.183Z,59.01
2016-03-07T10:21:37.138Z,58.83
2016-03-07T10:22:37.079Z,59.68
2016-03-07T10:23:37.003Z,58.92
2016-03-07T10:24:36.960Z,58.16
2016-03-07T10:25:36.899Z,58.35
2016-03-07T10:26:36.840Z,59.11
2016-03-07T10:27:36.811Z,60.91
2016-03-07T10:28:36.751Z,61.48
2016-03-07T10:29:36.692Z,62.15
2016-03-07T10:30:36.632Z,62.53
2016-03-07T10:31:36.587Z,62.15
2016-03-07T10:32:36.528Z,62.15
2016-03-07T10:33:36.468Z,62.05
2016-03-07T10:34:36.423Z,61.2
2016-03-07T10:35:36.348Z,61.29
2016-03-07T10:36:36.507Z,61.48
2016-03-07T10:37:36.244Z,61.68
2016-03-07T10:38:36.184Z,61.2
2016-03-07T10:39:36.109Z,61.2
2016-03-07T10:40:36.080Z,61.68
2016-03-07T10:41:36.005Z,61.77
2016-03-07T10:42:35.945Z,61.58
2016-03-07T10:43:35.885Z,61.48
2016-03-07T10:44:35.841Z,61.01
2016-03-07T10:45:35.782Z,60.91
2016-03-07T10:46:35.738Z,61.68
2016-03-07T10:47:35.693Z,61.87
2016-03-07T10:48:35.618Z,61.48
2016-03-07T10:49:35.574Z,61.9
2016-03-07T10:50:35.513Z,62.18
2016-03-07T10:51:35.485Z,61.61
2016-03-07T10:52:35.410Z,61.64
2016-03-07T10:53:35.349Z,61.16
2016-03-07T10:54:34.540Z,61.07
2016-03-07T10:55:35.464Z,59.45
2016-03-07T10:56:35.187Z,59.07
2016-03-07T10:57:35.126Z,59.64
2016-03-07T10:58:35.082Z,60.88
2016-03-07T10:59:35.054Z,60.69
2016-03-07T11:00:36.689Z,58.22
2016-03-07T11:01:34.895Z,58.37
2016-03-07T11:02:37.423Z,58.95
2016-03-07T11:03:34.822Z,58.59
2016-03-07T11:04:34.746Z,58.59
2016-03-07T11:05:34.686Z,58.5
2016-03-07T11:06:34.641Z,58.34
2016-03-07T11:07:34.582Z,57.96
2016-03-07T11:08:34.538Z,57.29
2016-03-07T11:09:34.478Z,55.96
2016-03-07T11:10:34.419Z,55.42
2016-03-07T11:11:34.374Z,54.27
2016-03-07T11:12:34.315Z,52.01
2016-03-07T11:13:34.271Z,50.97
2016-03-07T11:14:34.210Z,50.49
2016-03-07T11:15:34.150Z,51.56
2016-03-07T11:16:34.106Z,51.66
2016-03-07T11:17:34.046Z,52.23
2016-03-07T11:18:33.987Z,52.42
2016-03-07T11:19:33.958Z,52.71
2016-03-07T11:20:33.882Z,51.56
2016-03-07T11:21:33.823Z,51.76
2016-03-07T11:22:33.778Z,51.76
2016-03-07T11:23:33.720Z,51.78
2016-03-07T11:24:33.659Z,51.21
2016-03-07T11:25:33.614Z,51.33
2016-03-07T11:26:33.555Z,50.09
2016-03-07T11:27:33.495Z,48.47
2016-03-07T11:28:33.450Z,47.73
2016-03-07T11:29:33.391Z,48.3
2016-03-07T11:30:33.378Z,47.34
2016-03-07T11:31:33.303Z,46.97
2016-03-07T11:32:33.227Z,47.16
2016-03-07T11:33:33.183Z,45.72
2016-03-07T11:34:33.139Z,46.01
2016-03-07T11:35:33.079Z,46.39
2016-03-07T11:36:33.050Z,46.3
2016-03-07T11:37:32.960Z,45.79
2016-03-07T11:38:32.916Z,45.87
2016-03-07T11:39:32.855Z,46.25
2016-03-07T11:40:32.810Z,46.63
2016-03-07T11:41:32.768Z,46.82
2016-03-07T11:42:32.707Z,46.34
2016-03-07T11:43:32.648Z,47.39
2016-03-07T11:44:32.587Z,47.3
2016-03-07T11:45:32.544Z,47.08
2016-03-07T11:46:32.499Z,47.47
2016-03-07T11:47:32.423Z,48.32
2016-03-07T11:48:32.380Z,48.9
2016-03-07T11:49:32.320Z,48.61
2016-03-07T11:50:32.603Z,48.99
2016-03-07T11:51:32.216Z,48.78
2016-03-07T11:52:32.173Z,49.35
2016-03-07T11:53:32.112Z,48.87
2016-03-07T11:54:32.052Z,47.44
2016-03-07T11:55:32.008Z,47.61
2016-03-07T11:56:31.948Z,47.32
2016-03-07T11:57:31.903Z,48.54
2016-03-07T11:58:31.828Z,49.32
2016-03-07T11:59:31.784Z,49.32
2016-03-07T12:00:31.725Z,49.71
2016-03-07T12:01:31.697Z,50.27
2016-03-07T12:02:31.620Z,50.09
2016-03-07T12:03:31.577Z,50.66
2016-03-07T12:04:31.500Z,50.75
2016-03-07T12:05:31.441Z,50.75
2016-03-07T12:06:31.400Z,49.71
2016-03-07T12:07:31.338Z,50.18
2016-03-07T12:08:31.293Z,49.9
2016-03-07T12:09:31.248Z,49.9
2016-03-07T12:10:31.189Z,50.66
2016-03-07T12:11:31.144Z,49.71
2016-03-07T12:12:31.084Z,49.9
2016-03-07T12:13:31.009Z,50.73
2016-03-07T12:14:30.981Z,50.44
2016-03-07T12:15:30.920Z,51.3
2016-03-07T12:16:30.861Z,51.97
2016-03-07T12:17:30.802Z,52.72
2016-03-07T12:18:30.757Z,51.97
2016-03-07T12:19:30.697Z,51.39
2016-03-07T12:20:30.637Z,51.3
2016-03-07T12:21:30.593Z,50.82
2016-03-07T12:22:30.549Z,51.3
2016-03-07T12:23:30.505Z,51.97
2016-03-07T12:24:30.429Z,52.82
2016-03-07T12:25:30.386Z,52.92
2016-03-07T12:26:30.325Z,52.34
2016-03-07T12:27:30.266Z,51.37
2016-03-07T12:28:30.206Z,50.99
2016-03-07T12:29:30.162Z,50.79
2016-03-07T12:30:30.103Z,50.89
2016-03-07T12:31:30.042Z,51.08
2016-03-07T12:32:29.998Z,51.08
2016-03-07T12:33:29.938Z,52.03
2016-03-07T12:34:29.894Z,51.84
2016-03-07T12:35:29.834Z,52.03
2016-03-07T12:36:29.774Z,52.22
2016-03-07T12:37:29.730Z,51.93
2016-03-07T12:38:29.671Z,51.56
2016-03-07T12:39:29.610Z,51.37
2016-03-07T12:40:29.566Z,50.68
2016-03-07T12:41:28.757Z,50.51
2016-03-07T12:42:29.447Z,51.06
2016-03-07T12:43:29.402Z,50.68
2016-03-07T12:44:29.327Z,51.15
2016-03-07T12:45:29.283Z,51.15
2016-03-07T12:46:29.223Z,51.91
2016-03-07T12:47:29.179Z,52.29
2016-03-07T12:48:29.103Z,53.15
2016-03-07T12:49:29.076Z,52.96
2016-03-07T12:50:29.031Z,54
2016-03-07T12:51:28.955Z,54.86
2016-03-07T12:52:28.880Z,54
2016-03-07T12:53:28.836Z,53.72
2016-03-07T12:54:28.791Z,53.24